Time;durP1;ratioP1;P1;durP2;ratioP2;P2;SDS_P1;SDS_P2;PMS_P1;PMS_P2;Temp;Humidity;BMP_temperature;BMP_pressure;BME280_temperature;BME280_humidity;BME280_pressure;Samples;Min_cycle;Max_cycle;Signal;HPM_P1;HPM_P2
2024/02/13 00:01:44;;;;;;;37.47;26.88;;;;;;;;;;5011205;28;20038;-64
2024/02/13 00:04:10;;;;;;;43.10;29.17;;;;;;;;;;5011918;28;20068;-64
2024/02/13 00:06:37;;;;;;;39.72;30.20;;;;;;;;;;5013322;28;20037;-64
2024/02/13 00:09:07;;;;;;;39.67;29.27;;;;;;;;;;5014129;28;20038;-64
2024/02/13 00:11:33;;;;;;;42.60;30.88;;;;;;;;;;5008181;28;20018;-64
2024/02/13 00:13:59;;;;;;;41.25;30.27;;;;;;;;;;5008410;28;20449;-64
2024/02/13 00:16:26;;;;;;;38.75;28.80;;;;;;;;;;5010881;28;20038;-64
2024/02/13 00:18:52;;;;;;;40.67;28.40;;;;;;;;;;5011863;28;20048;-64
2024/02/13 00:21:18;;;;;;;42.28;28.67;;;;;;;;;;5004178;28;20196;-64
2024/02/13 00:23:44;;;;;;;37.78;28.38;;;;;;;;;;5010468;28;20046;-63
2024/02/13 00:26:10;;;;;;;39.97;29.38;;;;;;;;;;5006977;28;20089;-63
2024/02/13 00:28:37;;;;;;;38.70;27.67;;;;;;;;;;5009483;28;20037;-64
2024/02/13 00:31:04;;;;;;;36.70;28.17;;;;;;;;;;5008369;28;20449;-64
2024/02/13 00:33:31;;;;;;;35.97;28.13;;;;;;;;;;4999308;28;20034;-63
2024/02/13 00:35:57;;;;;;;39.30;27.98;;;;;;;;;;4999023;28;20037;-63
2024/02/13 00:38:24;;;;;;;42.40;29.85;;;;;;;;;;4999917;28;20034;-63
2024/02/13 00:40:50;;;;;;;36.45;28.73;;;;;;;;;;5005654;28;20033;-64
2024/02/13 00:43:20;;;;;;;39.35;29.45;;;;;;;;;;5012860;28;20247;-63
2024/02/13 00:45:49;;;;;;;36.80;28.52;;;;;;;;;;5004868;28;20030;-63
2024/02/13 00:48:18;;;;;;;36.78;27.85;;;;;;;;;;5007736;28;20030;-64
2024/02/13 00:50:46;;;;;;;37.33;28.25;;;;;;;;;;5010753;28;20107;-63
2024/02/13 00:53:15;;;;;;;36.88;27.52;;;;;;;;;;5012642;28;20029;-63
2024/02/13 00:55:42;;;;;;;41.85;29.75;;;;;;;;;;5014175;28;20018;-63
2024/02/13 00:58:08;;;;;;;38.05;27.60;;;;;;;;;;5013989;28;20036;-63
2024/02/13 01:00:34;;;;;;;43.45;27.67;;;;;;;;;;5013320;28;20101;-64
2024/02/13 01:03:01;;;;;;;36.95;28.27;;;;;;;;;;5004158;28;20464;-63
2024/02/13 01:05:30;;;;;;;38.60;27.65;;;;;;;;;;5013613;28;20029;-63
2024/02/13 01:07:56;;;;;;;35.50;26.83;;;;;;;;;;5013314;28;20385;-63
2024/02/13 01:10:23;;;;;;;38.92;29.40;;;;;;;;;;5013891;28;20030;-63
2024/02/13 01:19:17;;;;;;;38.47;26.67;;;;;;;;;;5006305;28;20092;-63
2024/02/13 01:21:43;;;;;;;40.25;28.23;;;;;;;;;;5002627;28;20034;-63
2024/02/13 01:24:09;;;;;;;38.17;29.55;;;;;;;;;;5012419;28;20076;-63
2024/02/13 01:26:35;;;;;;;38.20;28.75;;;;;;;;;;5012158;28;20057;-63
2024/02/13 01:29:01;;;;;;;37.92;29.55;;;;;;;;;;4998217;28;20049;-63
2024/02/13 01:31:27;;;;;;;40.90;29.40;;;;;;;;;;5011166;28;20022;-63
2024/02/13 01:33:53;;;;;;;40.88;29.45;;;;;;;;;;5027022;28;20046;-63
2024/02/13 01:36:19;;;;;;;33.47;27.38;;;;;;;;;;5008551;28;20037;-63
2024/02/13 01:38:45;;;;;;;38.70;28.98;;;;;;;;;;5011273;28;20037;-63
2024/02/13 01:41:11;;;;;;;37.60;29.92;;;;;;;;;;5013158;28;20030;-63
2024/02/13 01:43:39;;;;;;;36.85;27.65;;;;;;;;;;5007342;28;20380;-63
2024/02/13 01:46:06;;;;;;;40.20;29.35;;;;;;;;;;5011785;28;20050;-63
2024/02/13 01:48:32;;;;;;;40.03;30.33;;;;;;;;;;5011300;28;20033;-62
2024/02/13 01:51:00;;;;;;;40.38;29.52;;;;;;;;;;5011416;28;20026;-63
2024/02/13 01:53:29;;;;;;;37.95;29.05;;;;;;;;;;5003303;28;20018;-62
2024/02/13 01:55:57;;;;;;;39.90;27.88;;;;;;;;;;5009727;28;20033;-62
2024/02/13 01:58:23;;;;;;;35.13;27.48;;;;;;;;;;5012885;28;20022;-63
2024/02/13 02:00:59;;;;;;;38.55;29.10;;;;;;;;;;5010686;28;20492;-62
2024/02/13 02:03:30;;;;;;;34.20;26.90;;;;;;;;;;5009462;28;20041;-62
2024/02/13 02:05:57;;;;;;;34.42;26.65;;;;;;;;;;5007142;28;20054;-63
2024/02/13 02:08:23;;;;;;;36.15;28.00;;;;;;;;;;5012969;28;20435;-63
2024/02/13 02:10:49;;;;;;;36.55;27.20;;;;;;;;;;5013008;28;20022;-62
2024/02/13 02:13:16;;;;;;;40.42;28.48;;;;;;;;;;5005688;28;20030;-62
2024/02/13 02:15:42;;;;;;;41.25;29.63;;;;;;;;;;5001323;28;20133;-62
2024/02/13 02:18:10;;;;;;;39.72;28.60;;;;;;;;;;5009690;28;20500;-62
2024/02/13 02:20:36;;;;;;;38.20;28.90;;;;;;;;;;4998657;28;20120;-62
2024/02/13 02:23:02;;;;;;;39.80;29.45;;;;;;;;;;5010707;28;20118;-62
2024/02/13 02:25:29;;;;;;;36.97;28.15;;;;;;;;;;5004425;28;20050;-62
2024/02/13 02:27:55;;;;;;;41.53;27.85;;;;;;;;;;5010736;28;20422;-62
2024/02/13 02:30:22;;;;;;;37.55;28.38;;;;;;;;;;5009449;28;20147;-62
2024/02/13 02:32:48;;;;;;;34.38;26.50;;;;;;;;;;5009677;28;20061;-62
2024/02/13 02:35:16;;;;;;;39.05;27.60;;;;;;;;;;5008627;28;20065;-62
2024/02/13 02:37:47;;;;;;;38.22;26.38;;;;;;;;;;5009649;28;20392;-62
2024/02/13 02:40:14;;;;;;;34.20;25.75;;;;;;;;;;5011335;28;20013;-62
2024/02/13 02:42:40;;;;;;;37.80;28.02;;;;;;;;;;5011586;28;20033;-62
2024/02/13 02:45:06;;;;;;;39.83;29.13;;;;;;;;;;5010099;28;20041;-62
2024/02/13 02:47:34;;;;;;;37.33;28.58;;;;;;;;;;5005640;28;20062;-62
2024/02/13 02:50:00;;;;;;;35.28;27.42;;;;;;;;;;5006749;28;20026;-62
2024/02/13 02:52:26;;;;;;;35.08;26.13;;;;;;;;;;5009914;28;20159;-62
2024/02/13 02:54:52;;;;;;;39.28;28.80;;;;;;;;;;5006614;28;20614;-62
2024/02/13 02:57:18;;;;;;;34.78;26.00;;;;;;;;;;5012066;28;20160;-63
2024/02/13 02:59:46;;;;;;;35.88;27.63;;;;;;;;;;5000173;28;20022;-62
2024/02/13 03:02:12;;;;;;;36.88;26.80;;;;;;;;;;5026875;28;20314;-62
2024/02/13 03:04:38;;;;;;;36.50;27.77;;;;;;;;;;5004937;28;20029;-62
2024/02/13 03:07:04;;;;;;;38.33;27.45;;;;;;;;;;5011150;28;20096;-62
2024/02/13 03:09:30;;;;;;;40.17;27.08;;;;;;;;;;5011510;28;20030;-62
2024/02/13 03:11:56;;;;;;;35.78;26.73;;;;;;;;;;5011611;28;20615;-62
2024/02/13 03:14:22;;;;;;;34.72;26.98;;;;;;;;;;5004182;28;20493;-62
2024/02/13 03:16:50;;;;;;;37.63;27.40;;;;;;;;;;4996675;28;20026;-62
2024/02/13 03:19:16;;;;;;;32.50;26.42;;;;;;;;;;5009741;28;20109;-62
2024/02/13 03:21:42;;;;;;;33.65;28.17;;;;;;;;;;5006421;28;20463;-62
2024/02/13 03:24:08;;;;;;;34.65;26.05;;;;;;;;;;5001329;28;20034;-61
2024/02/13 03:26:34;;;;;;;32.63;25.65;;;;;;;;;;5005291;28;20025;-62
2024/02/13 03:29:02;;;;;;;33.75;25.80;;;;;;;;;;5007685;28;20484;-62
2024/02/13 03:31:28;;;;;;;35.97;26.10;;;;;;;;;;5008230;28;20134;-61
2024/02/13 03:33:54;;;;;;;29.83;23.75;;;;;;;;;;5000378;28;20022;-62
2024/02/13 03:36:20;;;;;;;31.13;23.95;;;;;;;;;;5015349;28;20026;-62
2024/02/13 03:38:48;;;;;;;30.88;24.15;;;;;;;;;;5012596;28;20029;-62
2024/02/13 03:41:14;;;;;;;30.20;22.58;;;;;;;;;;5013788;28;20026;-62
2024/02/13 03:43:46;;;;;;;28.48;22.35;;;;;;;;;;5008496;28;20062;-62
2024/02/13 03:46:12;;;;;;;31.98;23.98;;;;;;;;;;5004609;28;20021;-62
2024/02/13 03:48:38;;;;;;;27.02;21.65;;;;;;;;;;5014053;28;20026;-62
2024/02/13 03:51:04;;;;;;;24.58;21.13;;;;;;;;;;5012714;28;20025;-62
2024/02/13 03:53:30;;;;;;;27.75;21.33;;;;;;;;;;5004857;28;20084;-62
2024/02/13 03:55:56;;;;;;;27.50;20.23;;;;;;;;;;5012687;28;20021;-63
2024/02/13 03:58:22;;;;;;;29.70;21.73;;;;;;;;;;5015174;28;20130;-62
2024/02/13 04:00:48;;;;;;;24.42;19.20;;;;;;;;;;5005720;28;20026;-62
2024/02/13 04:03:14;;;;;;;25.23;20.63;;;;;;;;;;4999010;28;20118;-62
2024/02/13 04:05:40;;;;;;;24.85;19.90;;;;;;;;;;5015155;28;20380;-62
2024/02/13 04:08:06;;;;;;;26.15;20.25;;;;;;;;;;5014914;28;20112;-62
2024/02/13 04:10:35;;;;;;;25.25;19.88;;;;;;;;;;5010824;28;20030;-62
2024/02/13 04:13:02;;;;;;;24.58;18.88;;;;;;;;;;5008721;28;20030;-62
2024/02/13 04:15:28;;;;;;;22.77;18.38;;;;;;;;;;5013372;28;20030;-62
2024/02/13 04:17:54;;;;;;;24.23;19.20;;;;;;;;;;5009127;28;20530;-62
2024/02/13 04:20:20;;;;;;;25.17;18.98;;;;;;;;;;5000645;28;20045;-62
2024/02/13 04:22:46;;;;;;;24.63;18.65;;;;;;;;;;5009050;28;20060;-62
2024/02/13 04:25:12;;;;;;;26.45;20.25;;;;;;;;;;5012717;28;20423;-62
2024/02/13 04:27:38;;;;;;;27.83;20.30;;;;;;;;;;5012648;28;20039;-62
2024/02/13 04:30:11;;;;;;;26.42;19.50;;;;;;;;;;5000883;28;20435;-62
2024/02/13 04:32:37;;;;;;;28.25;20.95;;;;;;;;;;5005787;28;20026;-62
2024/02/13 04:35:04;;;;;;;36.78;22.27;;;;;;;;;;5012979;28;20030;-62
2024/02/13 04:37:30;;;;;;;29.42;21.00;;;;;;;;;;5013000;28;20030;-62
2024/02/13 04:39:56;;;;;;;29.55;21.52;;;;;;;;;;5014299;28;20365;-62
2024/02/13 04:42:32;;;;;;;32.67;21.77;;;;;;;;;;5010933;28;20044;-62
2024/02/13 04:44:59;;;;;;;30.15;21.05;;;;;;;;;;5005498;28;20029;-62
2024/02/13 04:47:27;;;;;;;33.08;22.50;;;;;;;;;;5007338;28;20065;-62
2024/02/13 04:49:54;;;;;;;33.13;22.63;;;;;;;;;;5007435;28;20030;-62
2024/02/13 04:52:20;;;;;;;42.38;24.33;;;;;;;;;;5002737;28;20065;-62
2024/02/13 04:54:46;;;;;;;39.38;25.55;;;;;;;;;;5016269;28;20432;-63
2024/02/13 04:57:12;;;;;;;36.67;23.90;;;;;;;;;;5005788;28;20068;-62
2024/02/13 04:59:47;;;;;;;36.67;24.73;;;;;;;;;;5005687;28;20025;-62
2024/02/13 05:02:14;;;;;;;46.03;27.02;;;;;;;;;;5007081;28;20029;-62
2024/02/13 05:07:26;;;;;;;40.33;25.25;;;;;;;;;;5014187;28;20117;-62
2024/02/13 05:09:53;;;;;;;42.70;25.88;;;;;;;;;;5013654;28;20117;-63
2024/02/13 05:12:19;;;;;;;44.23;25.90;;;;;;;;;;5009931;28;20070;-63
2024/02/13 05:14:45;;;;;;;45.97;24.95;;;;;;;;;;5013614;28;20441;-62
2024/02/13 05:17:11;;;;;;;41.28;25.23;;;;;;;;;;5012797;28;20030;-62
2024/02/13 05:19:38;;;;;;;43.27;25.60;;;;;;;;;;5004352;28;20034;-62
2024/02/13 05:22:05;;;;;;;40.80;27.15;;;;;;;;;;5011976;28;20128;-62
2024/02/13 05:24:31;;;;;;;37.33;24.87;;;;;;;;;;5011902;28;20073;-62
2024/02/13 05:26:59;;;;;;;35.50;24.13;;;;;;;;;;5008089;28;20487;-62
2024/02/13 05:29:25;;;;;;;36.90;23.30;;;;;;;;;;5010774;28;20025;-62
2024/02/13 05:31:52;;;;;;;32.97;22.87;;;;;;;;;;4999180;28;20036;-62
2024/02/13 05:34:19;;;;;;;36.35;23.40;;;;;;;;;;5011773;28;20029;-62
2024/02/13 05:36:46;;;;;;;33.90;22.13;;;;;;;;;;5013108;28;20036;-62
2024/02/13 05:39:12;;;;;;;36.40;23.10;;;;;;;;;;5011950;28;20425;-62
2024/02/13 05:41:40;;;;;;;39.67;23.93;;;;;;;;;;5006314;28;20026;-63
2024/02/13 05:44:06;;;;;;;40.47;24.40;;;;;;;;;;5012057;28;20061;-62
2024/02/13 05:46:32;;;;;;;42.13;24.77;;;;;;;;;;5027039;28;20527;-63
2024/02/13 05:49:01;;;;;;;42.57;24.60;;;;;;;;;;5012679;28;20045;-63
2024/02/13 05:51:27;;;;;;;43.77;23.50;;;;;;;;;;5012208;28;20057;-62
2024/02/13 05:53:53;;;;;;;41.43;23.47;;;;;;;;;;5010486;28;20028;-62
2024/02/13 05:56:19;;;;;;;48.83;26.33;;;;;;;;;;5008745;28;20046;-62
2024/02/13 05:58:45;;;;;;;39.13;24.57;;;;;;;;;;5011430;28;20040;-63
2024/02/13 06:01:13;;;;;;;42.77;24.63;;;;;;;;;;5012690;28;20028;-62
2024/02/13 06:03:39;;;;;;;50.13;23.50;;;;;;;;;;5004620;28;20038;-62
2024/02/13 06:06:05;;;;;;;43.53;23.53;;;;;;;;;;5012624;28;20045;-62
2024/02/13 06:08:33;;;;;;;48.87;25.23;;;;;;;;;;5005603;28;20038;-62
2024/02/13 06:10:59;;;;;;;41.20;23.63;;;;;;;;;;5009411;28;20033;-62
2024/02/13 06:13:26;;;;;;;52.53;25.63;;;;;;;;;;5012376;28;20033;-62
2024/02/13 06:15:54;;;;;;;44.90;25.40;;;;;;;;;;5006612;28;20029;-62
2024/02/13 06:18:21;;;;;;;47.33;24.60;;;;;;;;;;5008463;28;20030;-62
2024/02/13 06:20:47;;;;;;;48.83;24.80;;;;;;;;;;5006464;28;20029;-62
2024/02/13 06:23:13;;;;;;;54.67;25.67;;;;;;;;;;5000627;28;20122;-62
2024/02/13 06:25:39;;;;;;;51.23;27.73;;;;;;;;;;5021196;28;20076;-62
2024/02/13 06:28:06;;;;;;;54.60;27.70;;;;;;;;;;5009986;28;20052;-62
2024/02/13 06:30:32;;;;;;;55.47;28.87;;;;;;;;;;5004436;28;20116;-62
2024/02/13 06:33:00;;;;;;;56.87;30.37;;;;;;;;;;5024776;28;20022;-62
2024/02/13 06:35:26;;;;;;;59.73;30.07;;;;;;;;;;5010105;28;20026;-62
2024/02/13 06:37:53;;;;;;;58.20;29.77;;;;;;;;;;5008136;28;20399;-62
2024/02/13 06:40:19;;;;;;;58.03;28.93;;;;;;;;;;5010676;28;20026;-63
2024/02/13 06:42:45;;;;;;;57.17;28.90;;;;;;;;;;5008997;28;20487;-63
2024/02/13 06:45:11;;;;;;;57.90;29.93;;;;;;;;;;5006328;28;20034;-63
2024/02/13 06:47:37;;;;;;;47.88;27.20;;;;;;;;;;4995886;28;20036;-63
2024/02/13 06:50:07;;;;;;;42.17;26.43;;;;;;;;;;5007112;28;20093;-63
2024/02/13 06:52:33;;;;;;;35.57;22.50;;;;;;;;;;5008686;28;20033;-63
2024/02/13 06:54:59;;;;;;;33.03;21.97;;;;;;;;;;5000757;28;20388;-63
2024/02/13 06:57:24;;;;;;;33.47;22.23;;;;;;;;;;5000931;28;20147;-63
2024/02/13 06:59:51;;;;;;;32.27;21.27;;;;;;;;;;5011683;28;20486;-63
2024/02/13 07:02:17;;;;;;;31.23;21.50;;;;;;;;;;5009380;28;20045;-63
2024/02/13 07:04:42;;;;;;;34.13;21.37;;;;;;;;;;5008075;28;20085;-63
2024/02/13 07:07:08;;;;;;;27.60;20.10;;;;;;;;;;5006581;28;20383;-62
2024/02/13 07:09:34;;;;;;;29.23;20.70;;;;;;;;;;5006441;28;20032;-62
2024/02/13 07:12:00;;;;;;;27.53;18.90;;;;;;;;;;5004747;28;20029;-63
2024/02/13 07:14:28;;;;;;;31.20;21.03;;;;;;;;;;5002828;28;20461;-63
2024/02/13 07:16:54;;;;;;;31.30;20.53;;;;;;;;;;5001056;28;20046;-62
2024/02/13 07:19:20;;;;;;;31.40;21.03;;;;;;;;;;5011581;28;20432;-62
2024/02/13 07:21:46;;;;;;;30.20;20.27;;;;;;;;;;5005403;28;20022;-63
2024/02/13 07:24:12;;;;;;;32.40;20.63;;;;;;;;;;5003724;28;20100;-63
2024/02/13 07:26:38;;;;;;;31.73;20.30;;;;;;;;;;5005281;28;20034;-63
2024/02/13 07:29:04;;;;;;;28.23;20.03;;;;;;;;;;5000629;28;20027;-63
2024/02/13 07:31:33;;;;;;;32.80;19.90;;;;;;;;;;5007225;28;20029;-63
2024/02/13 07:33:59;;;;;;;29.20;19.53;;;;;;;;;;5006860;28;20049;-63
2024/02/13 07:36:25;;;;;;;31.70;20.10;;;;;;;;;;5009125;28;20104;-63
2024/02/13 07:38:51;;;;;;;34.73;21.87;;;;;;;;;;5014551;28;20033;-63
2024/02/13 07:41:17;;;;;;;34.33;22.43;;;;;;;;;;5008424;28;20022;-63
2024/02/13 07:43:44;;;;;;;37.50;21.70;;;;;;;;;;5009816;28;20046;-63
2024/02/13 07:46:11;;;;;;;36.70;23.47;;;;;;;;;;5008243;28;20068;-63
2024/02/13 07:48:37;;;;;;;37.00;23.60;;;;;;;;;;5003853;28;20024;-63
2024/02/13 07:51:03;;;;;;;32.13;21.80;;;;;;;;;;5008962;28;20025;-63
2024/02/13 07:53:30;;;;;;;34.23;22.43;;;;;;;;;;4999360;28;20084;-62
2024/02/13 07:55:56;;;;;;;34.20;22.87;;;;;;;;;;5005537;28;20030;-62
2024/02/13 07:58:22;;;;;;;31.13;21.33;;;;;;;;;;5001708;28;20503;-63
2024/02/13 08:00:49;;;;;;;32.80;22.27;;;;;;;;;;5022313;28;20144;-62
2024/02/13 08:03:15;;;;;;;47.47;27.57;;;;;;;;;;5014002;28;20388;-63
2024/02/13 08:05:41;;;;;;;49.40;29.67;;;;;;;;;;5009451;28;20022;-62
2024/02/13 08:08:10;;;;;;;43.33;28.23;;;;;;;;;;5007441;28;20026;-62
2024/02/13 08:10:37;;;;;;;49.93;29.73;;;;;;;;;;5008860;28;20029;-63
2024/02/13 08:13:03;;;;;;;52.60;30.27;;;;;;;;;;5010399;28;20029;-63
2024/02/13 08:15:29;;;;;;;48.47;28.80;;;;;;;;;;5006488;28;20054;-63
2024/02/13 08:17:55;;;;;;;50.63;30.63;;;;;;;;;;5011577;28;20034;-63
2024/02/13 08:20:21;;;;;;;46.67;28.37;;;;;;;;;;5009934;28;20392;-62
2024/02/13 08:22:48;;;;;;;38.28;25.63;;;;;;;;;;5012924;28;20049;-62
2024/02/13 08:25:14;;;;;;;40.17;25.83;;;;;;;;;;5010713;28;20057;-63
2024/02/13 08:27:40;;;;;;;41.63;26.60;;;;;;;;;;5012307;28;20030;-66
2024/02/13 08:30:10;;;;;;;45.10;27.07;;;;;;;;;;5011175;28;20014;-62
2024/02/13 08:32:38;;;;;;;42.37;27.33;;;;;;;;;;5005497;28;20479;-62
2024/02/13 08:35:05;;;;;;;42.97;27.60;;;;;;;;;;5006465;28;20140;-62
2024/02/13 08:37:31;;;;;;;39.67;26.73;;;;;;;;;;5012344;28;20374;-62
2024/02/13 08:39:57;;;;;;;39.80;25.37;;;;;;;;;;5005925;28;20069;-62
2024/02/13 08:42:23;;;;;;;43.07;26.50;;;;;;;;;;5008103;28;20034;-67
2024/02/13 08:44:51;;;;;;;44.60;28.17;;;;;;;;;;5006985;28;20056;-67
2024/02/13 08:47:17;;;;;;;46.97;27.70;;;;;;;;;;5003511;28;20457;-62
2024/02/13 08:49:44;;;;;;;47.33;29.13;;;;;;;;;;5011214;28;20121;-61
2024/02/13 08:52:10;;;;;;;45.33;26.63;;;;;;;;;;4994799;28;20146;-62
2024/02/13 08:54:36;;;;;;;49.43;29.47;;;;;;;;;;5009217;28;20025;-53
2024/02/13 08:57:02;;;;;;;45.92;28.13;;;;;;;;;;5015535;28;20390;-60
2024/02/13 08:59:31;;;;;;;52.93;29.17;;;;;;;;;;5006850;28;20025;-60
2024/02/13 09:01:57;;;;;;;48.83;29.70;;;;;;;;;;5013187;28;20084;-61
2024/02/13 09:04:23;;;;;;;48.80;28.70;;;;;;;;;;5015014;28;20034;-61
2024/02/13 09:06:49;;;;;;;47.30;28.70;;;;;;;;;;5020605;28;20026;-58
2024/02/13 09:09:16;;;;;;;49.47;30.92;;;;;;;;;;5011700;28;20022;-60
2024/02/13 09:11:42;;;;;;;52.07;32.37;;;;;;;;;;5007026;28;20428;-60
2024/02/13 09:14:09;;;;;;;49.20;30.67;;;;;;;;;;5009811;28;20526;-60
2024/02/13 09:16:36;;;;;;;47.00;28.73;;;;;;;;;;5012133;28;20030;-62
2024/02/13 09:19:02;;;;;;;46.73;29.37;;;;;;;;;;5010245;28;20041;-60
2024/02/13 09:21:30;;;;;;;39.50;27.90;;;;;;;;;;5011786;28;20025;-61
2024/02/13 09:23:56;;;;;;;44.10;27.80;;;;;;;;;;4996115;28;20554;-60
2024/02/13 09:26:23;;;;;;;42.28;27.42;;;;;;;;;;5009298;28;20128;-61
2024/02/13 09:28:49;;;;;;;39.37;26.57;;;;;;;;;;5010006;28;20128;-62
2024/02/13 09:31:16;;;;;;;33.63;24.00;;;;;;;;;;5009613;28;20193;-62
2024/02/13 09:33:42;;;;;;;35.22;24.33;;;;;;;;;;5008978;28;20118;-68
2024/02/13 09:36:09;;;;;;;35.73;23.43;;;;;;;;;;5013953;28;20054;-67
2024/02/13 09:38:38;;;;;;;34.05;23.27;;;;;;;;;;5009150;28;20030;-67
2024/02/13 09:41:04;;;;;;;33.03;22.73;;;;;;;;;;5017436;28;20113;-67
2024/02/13 09:43:31;;;;;;;35.08;23.15;;;;;;;;;;5007577;28;20047;-53
2024/02/13 09:45:57;;;;;;;36.13;23.38;;;;;;;;;;5004405;28;20059;-58
2024/02/13 09:48:23;;;;;;;36.78;22.23;;;;;;;;;;5008691;28;20023;-61
2024/02/13 09:50:53;;;;;;;35.28;24.52;;;;;;;;;;5008391;28;20109;-60
2024/02/13 09:53:26;;;;;;;39.58;24.85;;;;;;;;;;5011132;28;20029;-63
2024/02/13 09:55:54;;;;;;;39.38;25.58;;;;;;;;;;5005535;28;20038;-61
2024/02/13 09:58:20;;;;;;;38.05;25.23;;;;;;;;;;5011630;28;20384;-57
2024/02/13 10:00:46;;;;;;;34.58;23.02;;;;;;;;;;5010777;28;20030;-58
2024/02/13 10:03:12;;;;;;;34.88;22.05;;;;;;;;;;5004801;28;20073;-60
2024/02/13 10:05:41;;;;;;;33.20;23.50;;;;;;;;;;5022386;28;20472;-64
2024/02/13 10:08:08;;;;;;;33.08;22.08;;;;;;;;;;5021447;28;20105;-62
2024/02/13 10:10:34;;;;;;;35.13;22.02;;;;;;;;;;5008606;28;20026;-61
2024/02/13 10:13:00;;;;;;;37.13;22.25;;;;;;;;;;5012028;28;20471;-58
2024/02/13 10:15:40;;;;;;;37.83;24.00;;;;;;;;;;5000313;28;20081;-61
2024/02/13 10:18:25;;;;;;;34.42;23.35;;;;;;;;;;5011611;28;20025;-66
2024/02/13 10:20:51;;;;;;;33.75;23.58;;;;;;;;;;5006815;28;20073;-62
2024/02/13 10:23:18;;;;;;;32.70;23.02;;;;;;;;;;5007686;28;20136;-60
2024/02/13 10:25:47;;;;;;;37.28;24.35;;;;;;;;;;5006513;28;20518;-65
2024/02/13 10:28:13;;;;;;;43.13;26.95;;;;;;;;;;5010239;28;20037;-60
2024/02/13 10:30:39;;;;;;;37.78;24.20;;;;;;;;;;5009455;28;20030;-57
2024/02/13 10:33:08;;;;;;;32.55;22.45;;;;;;;;;;5009875;28;20033;-51
2024/02/13 10:35:34;;;;;;;38.63;25.25;;;;;;;;;;5010752;28;20026;-60
2024/02/13 10:38:03;;;;;;;39.28;24.75;;;;;;;;;;5010871;28;20038;-59
2024/02/13 10:40:33;;;;;;;33.13;23.83;;;;;;;;;;5010456;28;20053;-60
2024/02/13 10:43:00;;;;;;;34.95;22.77;;;;;;;;;;5016050;28;20120;-60
2024/02/13 10:45:33;;;;;;;36.78;23.63;;;;;;;;;;5004261;28;20105;-58
2024/02/13 10:48:28;;;;;;;36.58;24.52;;;;;;;;;;5013079;28;20102;-65
2024/02/13 10:50:57;;;;;;;34.03;21.55;;;;;;;;;;5007584;28;20096;-72
2024/02/13 10:53:23;;;;;;;33.78;23.35;;;;;;;;;;5021500;28;20038;-66
2024/02/13 10:55:53;;;;;;;31.90;22.27;;;;;;;;;;5008971;28;20021;-73
2024/02/13 10:58:20;;;;;;;29.10;21.55;;;;;;;;;;5012807;28;20091;-69
2024/02/13 11:00:46;;;;;;;32.30;22.13;;;;;;;;;;5007022;28;20026;-68
2024/02/13 11:03:12;;;;;;;33.58;22.05;;;;;;;;;;5008502;28;20045;-66
2024/02/13 11:05:38;;;;;;;31.52;21.30;;;;;;;;;;5006498;28;20029;-63
2024/02/13 11:08:06;;;;;;;33.83;20.55;;;;;;;;;;5007423;28;20325;-61
2024/02/13 11:10:35;;;;;;;28.58;20.50;;;;;;;;;;5007777;28;20108;-62
2024/02/13 11:13:04;;;;;;;29.67;20.30;;;;;;;;;;5007119;28;20087;-64
2024/02/13 11:15:32;;;;;;;32.03;20.25;;;;;;;;;;5013491;28;20447;-65
2024/02/13 11:18:04;;;;;;;30.42;20.45;;;;;;;;;;5007872;28;20022;-71
2024/02/13 11:20:31;;;;;;;26.85;19.67;;;;;;;;;;5007840;28;20476;-52
2024/02/13 11:23:00;;;;;;;29.77;20.10;;;;;;;;;;5009993;28;20124;-69
2024/02/13 11:25:26;;;;;;;26.55;19.77;;;;;;;;;;5009649;28;20326;-69
2024/02/13 11:28:05;;;;;;;25.02;17.85;;;;;;;;;;5006700;28;20048;-66
2024/02/13 11:30:32;;;;;;;26.63;18.77;;;;;;;;;;5004852;28;20408;-66
2024/02/13 11:33:05;;;;;;;26.10;18.48;;;;;;;;;;5006777;28;20022;-55
2024/02/13 11:35:41;;;;;;;25.70;18.20;;;;;;;;;;5020986;28;20301;-65
2024/02/13 11:38:11;;;;;;;24.92;17.73;;;;;;;;;;5009991;28;20061;-65
2024/02/13 11:40:44;;;;;;;25.52;17.60;;;;;;;;;;5006958;28;20387;-66
2024/02/13 11:43:30;;;;;;;25.02;17.67;;;;;;;;;;5002122;28;20038;-69
2024/02/13 11:46:03;;;;;;;25.45;18.52;;;;;;;;;;5009548;28;20029;-68
2024/02/13 11:48:30;;;;;;;26.90;18.73;;;;;;;;;;5011021;28;20352;-68
2024/02/13 11:50:56;;;;;;;25.33;18.33;;;;;;;;;;5012991;28;20029;-68
2024/02/13 11:53:22;;;;;;;24.10;17.67;;;;;;;;;;5014981;28;20040;-68
2024/02/13 11:55:49;;;;;;;24.60;18.25;;;;;;;;;;5015186;28;20068;-68
2024/02/13 11:58:21;;;;;;;30.92;21.20;;;;;;;;;;5013964;28;20375;-68
2024/02/13 12:01:00;;;;;;;25.58;19.52;;;;;;;;;;5015027;28;20030;-69
2024/02/13 12:03:26;;;;;;;22.48;17.02;;;;;;;;;;5013277;28;20179;-69
2024/02/13 12:05:52;;;;;;;24.65;18.42;;;;;;;;;;5014749;28;20029;-68
2024/02/13 12:08:19;;;;;;;23.55;19.00;;;;;;;;;;5021731;28;20117;-68
2024/02/13 12:10:45;;;;;;;27.35;18.48;;;;;;;;;;5006223;28;20118;-68
2024/02/13 12:13:11;;;;;;;26.23;19.02;;;;;;;;;;5013642;28;20033;-69
2024/02/13 12:15:38;;;;;;;67.47;41.35;;;;;;;;;;5008914;28;20022;-70
2024/02/13 12:18:07;;;;;;;34.22;24.40;;;;;;;;;;5029991;28;20025;-68
2024/02/13 12:20:33;;;;;;;25.63;20.35;;;;;;;;;;5013550;28;20018;-68
2024/02/13 12:22:59;;;;;;;25.65;19.95;;;;;;;;;;5015205;28;20084;-68
2024/02/13 12:25:25;;;;;;;25.67;18.27;;;;;;;;;;5014670;28;20049;-68
2024/02/13 12:27:52;;;;;;;21.10;15.77;;;;;;;;;;5015125;28;20044;-68
2024/02/13 12:30:19;;;;;;;25.20;16.25;;;;;;;;;;5028963;28;20018;-67
2024/02/13 12:32:46;;;;;;;22.10;16.90;;;;;;;;;;5014470;28;20092;-68
2024/02/13 12:35:50;;;;;;;21.10;16.73;;;;;;;;;;5014626;28;20068;-67
2024/02/13 12:38:19;;;;;;;21.05;16.13;;;;;;;;;;5008417;28;20084;-67
2024/02/13 12:40:45;;;;;;;20.85;15.23;;;;;;;;;;5014079;28;20018;-67
2024/02/13 12:43:15;;;;;;;20.02;15.65;;;;;;;;;;5013760;28;20439;-68
2024/02/13 12:45:46;;;;;;;20.08;15.35;;;;;;;;;;5012488;28;20038;-68
2024/02/13 12:48:12;;;;;;;20.30;14.95;;;;;;;;;;5010159;28;20085;-67
2024/02/13 12:50:38;;;;;;;21.50;16.20;;;;;;;;;;5012536;28;20112;-68
2024/02/13 12:53:09;;;;;;;22.05;15.10;;;;;;;;;;5014592;28;20124;-68
2024/02/13 12:55:38;;;;;;;17.83;13.68;;;;;;;;;;5010215;28;20550;-68
2024/02/13 12:58:07;;;;;;;16.83;13.73;;;;;;;;;;5014220;28;20468;-67
2024/02/13 13:00:34;;;;;;;18.58;13.85;;;;;;;;;;5013580;28;20030;-67
2024/02/13 13:03:01;;;;;;;15.50;11.35;;;;;;;;;;5006660;28;20030;-66
2024/02/13 13:05:27;;;;;;;13.20;10.43;;;;;;;;;;5013825;28;20034;-67
2024/02/13 13:07:58;;;;;;;16.38;11.32;;;;;;;;;;5012575;28;20030;-66
2024/02/13 13:10:26;;;;;;;14.85;11.55;;;;;;;;;;5011754;28;20029;-66
2024/02/13 13:12:54;;;;;;;14.50;10.93;;;;;;;;;;5009657;28;20152;-67
2024/02/13 13:15:20;;;;;;;15.70;11.68;;;;;;;;;;5006420;28;20079;-68
2024/02/13 13:17:46;;;;;;;12.07;9.77;;;;;;;;;;5011145;28;20480;-67
2024/02/13 13:20:17;;;;;;;12.85;9.93;;;;;;;;;;5010472;28;20159;-67
2024/02/13 13:22:47;;;;;;;11.95;9.93;;;;;;;;;;5007193;28;20112;-68
2024/02/13 13:25:17;;;;;;;14.10;10.13;;;;;;;;;;5000440;28;20042;-69
2024/02/13 13:27:45;;;;;;;12.88;10.38;;;;;;;;;;5008616;28;20054;-68
2024/02/13 13:30:15;;;;;;;13.25;10.02;;;;;;;;;;5013460;28;20105;-68
2024/02/13 13:32:41;;;;;;;14.00;10.38;;;;;;;;;;5013494;28;20085;-68
2024/02/13 13:35:08;;;;;;;14.45;10.75;;;;;;;;;;5013162;28;20022;-67
2024/02/13 13:37:36;;;;;;;17.67;9.88;;;;;;;;;;5013157;28;20092;-69
2024/02/13 13:40:04;;;;;;;13.25;10.10;;;;;;;;;;5013608;28;20026;-67
2024/02/13 13:42:35;;;;;;;16.27;11.85;;;;;;;;;;5013167;28;20099;-68
2024/02/13 13:45:01;;;;;;;15.85;11.23;;;;;;;;;;5011920;28;20306;-68
2024/02/13 13:47:27;;;;;;;12.45;10.38;;;;;;;;;;5000461;28;20063;-68
2024/02/13 13:49:55;;;;;;;16.08;11.02;;;;;;;;;;5000472;28;20014;-68
2024/02/13 13:52:22;;;;;;;15.82;10.50;;;;;;;;;;5013214;28;20372;-68
2024/02/13 13:54:48;;;;;;;15.75;10.60;;;;;;;;;;5012778;28;20156;-68
2024/02/13 13:57:14;;;;;;;14.40;8.35;;;;;;;;;;5012795;28;20104;-68
2024/02/13 13:59:40;;;;;;;10.38;7.35;;;;;;;;;;5011591;28;20038;-68
2024/02/13 14:02:06;;;;;;;12.60;9.50;;;;;;;;;;5012587;28;20480;-68
2024/02/13 14:04:33;;;;;;;10.60;8.38;;;;;;;;;;5012611;28;20358;-68
2024/02/13 14:06:59;;;;;;;10.40;8.05;;;;;;;;;;5012701;28;20436;-69
2024/02/13 14:09:26;;;;;;;15.27;8.93;;;;;;;;;;5012883;28;20667;-68
2024/02/13 14:11:52;;;;;;;13.55;8.85;;;;;;;;;;5000089;28;20105;-68
2024/02/13 14:14:18;;;;;;;10.57;8.30;;;;;;;;;;5012113;28;20018;-68
2024/02/13 14:16:44;;;;;;;13.25;9.48;;;;;;;;;;5012474;28;20029;-68
2024/02/13 14:19:10;;;;;;;13.30;8.88;;;;;;;;;;5011250;28;20033;-68
2024/02/13 14:21:36;;;;;;;12.15;7.75;;;;;;;;;;5012719;28;20121;-68
2024/02/13 14:24:03;;;;;;;8.65;7.28;;;;;;;;;;5012105;28;20054;-69
2024/02/13 14:26:34;;;;;;;13.10;7.28;;;;;;;;;;5011128;28;20018;-69
2024/02/13 14:29:00;;;;;;;9.45;5.97;;;;;;;;;;5011591;28;20037;-69